hwlogo.jpg (8581 bytes)
Home Your Weather Products Services Weather On Your Site Contact
HW Version Logo
Weather Info
Your Weather (Options)
Canadian Weather
International Weather
Enter your " Place, State", US Zip Code or ICAO:  
Forecast Information Radar Information
Rocky Harbour, Newfoundland, Canada  Lat: 49.60N, Lon: 57.96W
ICAO Used: CYDF
Current Conditions
Updated:
Sun & Moon Information:
Temp: N/A
Humidity: N/A
Wind Speed: N/A
Barometer: N/A
Dewpoint: N/A
Heat Index: N/A
Wind Chill: N/A
Civil Twilight: 6:45 AM ADT Moon Phase:
New Moon
New Moon
Sunrise: 7:17 AM ADT
Sunset: 5:53 PM ADT
Civil Twilight: 6:26 PM ADT
Forecast for Rocky Harbour, NF, Canada:
(Forecast based on TAF for )
0442 PM ADT MON NOV 06 2006
  
AFTERNOONEVENINGOVERNIGHT
PARTLY CLOUDYPARTLY CLOUDYPARTLY CLOUDY
Partly
Cloudy
Partly
Cloudy
Partly
Cloudy
TAF based forecast:
Dated: 0442 PM ADT MON NOV 06 2006
Afternoon...Partly cloudy with winds variable at 3 mph.
Evening...Partly cloudy with winds variable at 3 mph.
Overnight...Partly cloudy with winds variable at 3 mph.
Original Encoded TAF:
Dated: 0442 PM ADT MON NOV 06 2006
2006/11/06 19:42
CYDF 061942Z 062008 VRB03KT P6SM SCT040=


  Powered By HAMweather.
Copyright 2001 - 2003 HAMweather, LLC, all rights reserved.
US Forecasts are Public Domain and derived from the
National Weather Service - (IWIN) and the National Oceanic Atmospheric Administration (NOAA)
Canadian forecasts are obtained from and are copyright of Environment Canada.